Time;durP1;ratioP1;P1;durP2;ratioP2;P2;SDS_P1;SDS_P2;PMS_P1;PMS_P2;Temp;Humidity;BMP_temperature;BMP_pressure;BME280_temperature;BME280_humidity;BME280_pressure;Samples;Min_cycle;Max_cycle;Signal;HPM_P1;HPM_P2
2021/07/08 00:01:09;;;;;;;;;;;17.60;81.90;;;;;;5074953;28;20237;-68
2021/07/08 00:03:34;;;;;;;;;;;17.60;82.50;;;;;;5074459;28;19913;-66
2021/07/08 00:06:00;;;;;;;;;;;17.60;82.50;;;;;;5077274;28;19919;-66
2021/07/08 00:08:25;;;;;;;;;;;17.60;82.40;;;;;;5079295;28;19919;-67
2021/07/08 00:10:52;;;;;;;;;;;17.50;82.50;;;;;;5073372;28;19920;-68
2021/07/08 00:13:20;;;;;;;;;;;17.50;83.00;;;;;;5079358;28;20086;-67
2021/07/08 00:15:45;;;;;;;;;;;17.50;82.40;;;;;;5080754;28;19912;-67
2021/07/08 00:18:13;;;;;;;;;;;17.40;83.30;;;;;;5074967;28;20327;-67
2021/07/08 00:20:39;;;;;;;;;;;17.40;83.50;;;;;;5076618;28;19998;-67
2021/07/08 00:23:05;;;;;;;;;;;17.50;84.00;;;;;;5075088;28;19977;-67
2021/07/08 00:25:31;;;;;;;;;;;17.50;84.20;;;;;;5077071;28;19920;-67
2021/07/08 00:27:57;;;;;;;;;;;17.40;84.50;;;;;;5073310;28;19912;-67
2021/07/08 00:30:23;;;;;;;;;;;17.30;84.50;;;;;;5078192;28;20244;-66
2021/07/08 00:32:49;;;;;;;;;;;17.40;83.40;;;;;;5077640;28;19927;-68
2021/07/08 00:35:15;;;;;;;;;;;17.30;83.90;;;;;;5078653;28;19912;-66
2021/07/08 00:37:40;;;;;;;;;;;17.30;84.40;;;;;;5076743;28;21530;-66
2021/07/08 00:40:08;;;;;;;;;;;17.30;83.50;;;;;;5077694;28;19930;-67
2021/07/08 00:42:33;;;;;;;;;;;17.20;84.30;;;;;;5077214;28;20288;-66
2021/07/08 00:44:59;;;;;;;;;;;17.20;84.40;;;;;;5077663;28;19932;-66
2021/07/08 00:47:24;;;;;;;;;;;17.20;84.10;;;;;;5074589;28;20091;-66
2021/07/08 00:49:50;;;;;;;;;;;17.20;84.60;;;;;;5073612;28;19975;-66
2021/07/08 00:52:16;;;;;;;;;;;17.10;84.10;;;;;;5077321;28;19945;-66
2021/07/08 00:54:42;;;;;;;;;;;17.00;83.50;;;;;;5074574;28;19936;-67
2021/07/08 00:57:07;;;;;;;;;;;17.00;83.80;;;;;;5063695;28;20546;-67
2021/07/08 00:59:40;;;;;;;;;;;16.90;83.70;;;;;;5083647;28;20339;-67
2021/07/08 01:02:06;;;;;;;;;;;16.80;84.20;;;;;;5081064;28;20262;-66
2021/07/08 01:04:32;;;;;;;;;;;16.80;84.50;;;;;;5087180;28;19924;-67
2021/07/08 01:06:58;;;;;;;;;;;16.70;84.30;;;;;;5082290;28;19985;-66
2021/07/08 01:09:24;;;;;;;;;;;16.60;84.40;;;;;;5080666;28;19917;-66
2021/07/08 01:11:50;;;;;;;;;;;16.60;84.80;;;;;;5086560;28;20007;-66
2021/07/08 01:14:16;;;;;;;;;;;16.50;85.10;;;;;;5071080;28;20368;-68
2021/07/08 01:16:41;;;;;;;;;;;16.50;85.50;;;;;;5086298;28;19920;-65
2021/07/08 01:19:07;;;;;;;;;;;16.50;85.60;;;;;;5079640;28;20363;-67
2021/07/08 01:21:34;;;;;;;;;;;16.60;85.50;;;;;;5081751;28;19999;-66
2021/07/08 01:24:00;;;;;;;;;;;16.60;85.30;;;;;;5080639;28;20038;-67
2021/07/08 01:26:26;;;;;;;;;;;16.60;85.30;;;;;;5083089;28;19934;-66
2021/07/08 01:28:52;;;;;;;;;;;16.60;85.60;;;;;;5078427;28;19916;-67
2021/07/08 01:31:18;;;;;;;;;;;16.60;85.30;;;;;;5085285;28;20516;-67
2021/07/08 01:33:44;;;;;;;;;;;16.70;86.50;;;;;;5081001;28;19933;-66
2021/07/08 01:36:10;;;;;;;;;;;16.70;86.40;;;;;;5077433;28;20121;-67
2021/07/08 01:38:35;;;;;;;;;;;16.80;85.40;;;;;;5083418;28;20109;-66
2021/07/08 01:41:01;;;;;;;;;;;16.70;85.50;;;;;;5079971;28;20414;-66
2021/07/08 01:43:26;;;;;;;;;;;16.70;85.40;;;;;;5084713;28;20304;-68
2021/07/08 01:45:52;;;;;;;;;;;16.70;85.50;;;;;;5082778;28;20496;-67
2021/07/08 01:48:17;;;;;;;;;;;16.80;85.10;;;;;;5073809;28;20460;-66
2021/07/08 01:50:43;;;;;;;;;;;16.80;85.20;;;;;;5078029;28;20245;-66
2021/07/08 01:53:08;;;;;;;;;;;16.80;84.80;;;;;;5057809;28;19923;-66
2021/07/08 01:55:34;;;;;;;;;;;16.80;85.90;;;;;;5083544;28;19940;-66
2021/07/08 01:58:01;;;;;;;;;;;16.80;85.80;;;;;;5079587;28;20420;-67
2021/07/08 02:00:27;;;;;;;;;;;16.80;85.50;;;;;;5078788;28;19915;-68
2021/07/08 02:02:53;;;;;;;;;;;16.80;85.50;;;;;;5068664;28;19920;-66
2021/07/08 02:05:19;;;;;;;;;;;16.90;85.50;;;;;;5078145;28;19928;-66
2021/07/08 02:07:44;;;;;;;;;;;16.90;85.30;;;;;;5077056;28;19943;-66
2021/07/08 02:10:11;;;;;;;;;;;16.90;85.20;;;;;;5083514;28;19961;-66
2021/07/08 02:12:37;;;;;;;;;;;16.90;85.30;;;;;;5081428;28;20279;-66
2021/07/08 02:15:03;;;;;;;;;;;17.00;85.10;;;;;;5071427;28;20006;-66
2021/07/08 02:17:29;;;;;;;;;;;17.00;85.10;;;;;;5082563;28;19927;-66
2021/07/08 02:19:54;;;;;;;;;;;17.00;84.70;;;;;;5077332;28;19919;-66
2021/07/08 02:22:19;;;;;;;;;;;17.00;85.20;;;;;;5083974;28;20399;-66
2021/07/08 02:24:45;;;;;;;;;;;17.00;84.90;;;;;;5064389;28;19912;-67
2021/07/08 02:27:11;;;;;;;;;;;17.00;84.90;;;;;;5079317;28;19965;-67
2021/07/08 02:29:36;;;;;;;;;;;17.00;85.30;;;;;;5061364;28;19960;-66
2021/07/08 02:32:02;;;;;;;;;;;17.00;86.10;;;;;;5084305;28;20106;-66
2021/07/08 02:34:28;;;;;;;;;;;17.00;86.30;;;;;;5084148;28;19953;-66
2021/07/08 02:36:53;;;;;;;;;;;16.90;85.90;;;;;;5079889;28;20299;-69
2021/07/08 02:39:19;;;;;;;;;;;17.00;85.50;;;;;;5082021;28;19916;-66
2021/07/08 02:41:44;;;;;;;;;;;16.90;86.10;;;;;;5084812;28;19912;-66
2021/07/08 02:44:10;;;;;;;;;;;16.90;86.50;;;;;;5078153;28;19992;-66
2021/07/08 02:46:35;;;;;;;;;;;16.90;85.90;;;;;;5079926;28;20083;-65
2021/07/08 02:49:01;;;;;;;;;;;16.90;85.70;;;;;;5081038;28;19930;-66
2021/07/08 02:51:26;;;;;;;;;;;17.00;85.50;;;;;;5072849;28;19912;-66
2021/07/08 02:53:52;;;;;;;;;;;17.00;86.00;;;;;;5084337;28;20380;-66
2021/07/08 02:56:17;;;;;;;;;;;17.00;85.90;;;;;;5083813;28;19943;-67
2021/07/08 02:58:43;;;;;;;;;;;17.00;85.70;;;;;;5076856;28;19940;-66
2021/07/08 03:01:08;;;;;;;;;;;17.00;85.60;;;;;;5080346;28;19920;-67
2021/07/08 03:03:34;;;;;;;;;;;16.90;86.00;;;;;;5063998;28;20249;-66
2021/07/08 03:05:59;;;;;;;;;;;16.90;86.00;;;;;;5067377;28;20340;-66
2021/07/08 03:08:25;;;;;;;;;;;16.90;86.30;;;;;;5084103;28;19919;-66
2021/07/08 03:10:50;;;;;;;;;;;16.80;86.20;;;;;;5080675;28;19916;-66
2021/07/08 03:13:16;;;;;;;;;;;16.80;86.60;;;;;;5079385;28;20424;-66
2021/07/08 03:15:41;;;;;;;;;;;16.80;86.20;;;;;;5077540;28;19920;-65
2021/07/08 03:18:07;;;;;;;;;;;16.80;86.00;;;;;;5070558;28;19923;-66
2021/07/08 03:20:36;;;;;;;;;;;16.80;85.90;;;;;;5081432;28;19928;-67
2021/07/08 03:23:04;;;;;;;;;;;16.80;86.00;;;;;;5074113;28;19951;-67
2021/07/08 03:25:29;;;;;;;;;;;16.80;86.70;;;;;;5072309;28;19958;-67
2021/07/08 03:27:55;;;;;;;;;;;16.80;86.70;;;;;;5070722;28;20353;-66
2021/07/08 03:30:22;;;;;;;;;;;16.90;86.60;;;;;;5076812;28;19974;-66
2021/07/08 03:32:49;;;;;;;;;;;16.90;86.70;;;;;;5078098;28;19917;-67
2021/07/08 03:35:15;;;;;;;;;;;16.90;86.80;;;;;;5069398;28;19977;-66
2021/07/08 03:37:41;;;;;;;;;;;17.00;86.60;;;;;;5080741;28;19953;-66
2021/07/08 03:40:07;;;;;;;;;;;17.00;86.60;;;;;;5081433;28;19913;-65
2021/07/08 03:42:35;;;;;;;;;;;17.00;86.50;;;;;;5072272;28;19916;-67
2021/07/08 03:45:00;;;;;;;;;;;17.00;86.40;;;;;;5083367;28;19934;-67
2021/07/08 03:47:26;;;;;;;;;;;17.00;86.40;;;;;;5083162;28;19919;-66
2021/07/08 03:49:51;;;;;;;;;;;17.10;86.00;;;;;;5064660;28;19920;-66
2021/07/08 03:52:16;;;;;;;;;;;17.10;86.80;;;;;;5075887;28;19952;-69
2021/07/08 03:54:42;;;;;;;;;;;17.00;86.70;;;;;;5077999;28;20309;-66
2021/07/08 03:57:07;;;;;;;;;;;17.00;86.80;;;;;;5080702;28;19916;-67
2021/07/08 03:59:33;;;;;;;;;;;17.00;86.60;;;;;;5071459;28;20270;-67
2021/07/08 04:01:58;;;;;;;;;;;17.00;86.70;;;;;;5072208;28;20356;-67
2021/07/08 04:04:24;;;;;;;;;;;17.00;87.10;;;;;;5078575;28;19992;-67
2021/07/08 04:06:49;;;;;;;;;;;17.00;87.40;;;;;;5083300;28;20293;-66
2021/07/08 04:09:15;;;;;;;;;;;17.00;87.40;;;;;;5084897;28;19969;-67
2021/07/08 04:11:40;;;;;;;;;;;17.00;87.70;;;;;;5071577;28;21359;-66
2021/07/08 04:14:06;;;;;;;;;;;16.90;88.00;;;;;;5078882;28;19928;-65
2021/07/08 04:16:31;;;;;;;;;;;17.00;87.80;;;;;;5073756;28;19912;-65
2021/07/08 04:18:57;;;;;;;;;;;17.00;87.80;;;;;;5069473;28;19931;-66
2021/07/08 04:21:22;;;;;;;;;;;17.10;87.90;;;;;;5053400;28;19930;-66
2021/07/08 04:23:48;;;;;;;;;;;17.20;87.50;;;;;;5072481;28;19939;-65
2021/07/08 04:26:14;;;;;;;;;;;17.20;87.40;;;;;;5061127;28;19970;-65
2021/07/08 04:28:40;;;;;;;;;;;17.20;87.80;;;;;;5057538;28;19912;-67
2021/07/08 04:31:06;;;;;;;;;;;17.10;88.00;;;;;;5057345;28;19923;-67
2021/07/08 04:33:31;;;;;;;;;;;17.20;88.00;;;;;;5059896;28;19942;-67
2021/07/08 04:35:57;;;;;;;;;;;17.30;87.70;;;;;;5061846;28;19995;-66
2021/07/08 04:38:22;;;;;;;;;;;17.30;87.80;;;;;;5061764;28;19913;-66
2021/07/08 04:40:48;;;;;;;;;;;17.30;87.10;;;;;;5058799;28;19953;-66
2021/07/08 04:43:14;;;;;;;;;;;17.30;87.10;;;;;;5047508;28;19964;-66
2021/07/08 04:45:39;;;;;;;;;;;17.40;86.90;;;;;;5063581;28;20234;-66
2021/07/08 04:48:06;;;;;;;;;;;17.40;86.80;;;;;;5061532;28;20007;-66
2021/07/08 04:50:31;;;;;;;;;;;17.50;86.90;;;;;;5054680;28;19931;-66
2021/07/08 04:52:58;;;;;;;;;;;17.60;86.20;;;;;;5053272;28;20399;-65
2021/07/08 04:55:25;;;;;;;;;;;17.60;86.50;;;;;;5047377;28;20827;-66
2021/07/08 04:57:51;;;;;;;;;;;17.70;86.50;;;;;;5054878;28;19917;-67
2021/07/08 05:00:21;;;;;;;;;;;17.70;86.50;;;;;;5061624;28;19920;-67
2021/07/08 05:02:47;;;;;;;;;;;17.80;85.70;;;;;;5054263;28;19913;-67
2021/07/08 05:05:13;;;;;;;;;;;17.90;85.70;;;;;;5062367;28;20047;-67
2021/07/08 05:07:39;;;;;;;;;;;17.90;85.80;;;;;;5059419;28;19916;-67
2021/07/08 05:10:06;;;;;;;;;;;18.00;86.00;;;;;;5055699;28;19912;-68
2021/07/08 05:12:31;;;;;;;;;;;18.00;85.60;;;;;;5059573;28;20014;-68
2021/07/08 05:14:57;;;;;;;;;;;18.00;85.00;;;;;;5052623;28;20024;-68
2021/07/08 05:17:23;;;;;;;;;;;18.00;85.60;;;;;;5060856;28;19956;-68
2021/07/08 05:19:48;;;;;;;;;;;17.90;85.70;;;;;;5060176;28;19923;-66
2021/07/08 05:22:17;;;;;;;;;;;17.90;85.70;;;;;;5057917;28;19912;-66
2021/07/08 05:24:43;;;;;;;;;;;18.00;86.10;;;;;;5059019;28;20049;-67
2021/07/08 05:27:15;;;;;;;;;;;18.00;85.60;;;;;;5059832;28;19948;-67
2021/07/08 05:29:41;;;;;;;;;;;18.00;85.70;;;;;;5060078;28;20330;-66
2021/07/08 05:32:07;;;;;;;;;;;18.00;85.50;;;;;;5051761;28;19996;-67
2021/07/08 05:34:32;;;;;;;;;;;18.10;85.90;;;;;;5056527;28;20401;-66
2021/07/08 05:36:58;;;;;;;;;;;18.20;85.60;;;;;;5056957;28;20611;-67
2021/07/08 05:39:23;;;;;;;;;;;18.40;85.80;;;;;;5053566;28;19919;-67
2021/07/08 05:41:49;;;;;;;;;;;18.40;85.50;;;;;;5060591;28;20332;-66
2021/07/08 05:44:14;;;;;;;;;;;18.50;85.10;;;;;;5056139;28;19913;-67
2021/07/08 05:46:40;;;;;;;;;;;18.50;84.30;;;;;;5061085;28;20031;-68
2021/07/08 05:49:05;;;;;;;;;;;18.70;84.00;;;;;;5059045;28;19991;-67
2021/07/08 05:51:31;;;;;;;;;;;18.80;83.70;;;;;;5054141;28;19921;-67
2021/07/08 05:53:59;;;;;;;;;;;19.00;83.60;;;;;;5059427;28;20019;-67
2021/07/08 05:56:25;;;;;;;;;;;19.10;83.10;;;;;;5052283;28;19982;-67
2021/07/08 05:58:51;;;;;;;;;;;19.20;82.00;;;;;;5063203;28;19975;-67
2021/07/08 06:01:18;;;;;;;;;;;19.40;82.40;;;;;;5056556;28;19956;-67
2021/07/08 06:03:43;;;;;;;;;;;19.50;83.20;;;;;;5061905;28;19935;-67
2021/07/08 06:06:09;;;;;;;;;;;19.60;82.70;;;;;;5056070;28;20052;-68
2021/07/08 06:08:34;;;;;;;;;;;19.70;80.90;;;;;;5053648;28;20332;-67
2021/07/08 06:11:00;;;;;;;;;;;19.70;80.00;;;;;;5057627;28;20163;-68
2021/07/08 06:13:25;;;;;;;;;;;19.80;80.40;;;;;;5053963;28;19953;-66
2021/07/08 06:15:51;;;;;;;;;;;19.90;78.80;;;;;;5064171;28;20002;-67
2021/07/08 06:18:16;;;;;;;;;;;19.90;79.60;;;;;;5064458;28;20003;-67
2021/07/08 06:20:42;;;;;;;;;;;19.90;80.10;;;;;;5064536;28;20441;-67
2021/07/08 06:23:07;;;;;;;;;;;19.90;80.60;;;;;;5057573;28;19963;-67
2021/07/08 06:25:33;;;;;;;;;;;19.90;79.40;;;;;;5056512;28;19999;-68
2021/07/08 06:27:58;;;;;;;;;;;19.80;79.40;;;;;;5064963;28;19923;-67
2021/07/08 06:30:24;;;;;;;;;;;19.80;80.70;;;;;;5064864;28;20009;-66
2021/07/08 06:32:49;;;;;;;;;;;19.80;81.30;;;;;;5063794;28;20053;-68
2021/07/08 06:35:18;;;;;;;;;;;19.80;81.20;;;;;;5062596;28;19920;-67
2021/07/08 06:37:47;;;;;;;;;;;19.80;81.20;;;;;;5060284;28;19917;-67
2021/07/08 06:40:16;;;;;;;;;;;19.70;81.20;;;;;;5054851;28;19912;-67
2021/07/08 06:42:41;;;;;;;;;;;19.60;81.60;;;;;;5059519;28;19921;-66
2021/07/08 06:45:11;;;;;;;;;;;19.50;82.80;;;;;;5056278;28;20241;-67
2021/07/08 06:47:43;;;;;;;;;;;19.50;83.50;;;;;;5062944;28;19920;-69
2021/07/08 06:50:09;;;;;;;;;;;19.50;83.60;;;;;;5054944;28;20016;-68
2021/07/08 06:52:34;;;;;;;;;;;19.40;83.50;;;;;;5064594;28;20085;-67
2021/07/08 06:54:59;;;;;;;;;;;19.40;83.50;;;;;;5058541;28;19932;-68
2021/07/08 06:57:25;;;;;;;;;;;19.50;83.00;;;;;;5046103;28;20079;-67
2021/07/08 06:59:50;;;;;;;;;;;19.60;82.40;;;;;;5057952;28;20313;-67
2021/07/08 07:02:16;;;;;;;;;;;19.80;81.00;;;;;;5052428;28;19918;-67
2021/07/08 07:04:41;;;;;;;;;;;20.00;81.10;;;;;;5029629;28;20307;-67
2021/07/08 07:07:07;;;;;;;;;;;20.30;82.20;;;;;;5063098;28;19920;-67
2021/07/08 07:09:33;;;;;;;;;;;20.60;79.30;;;;;;5058137;28;20226;-67
2021/07/08 07:11:58;;;;;;;;;;;20.60;77.90;;;;;;5063730;28;19991;-68
2021/07/08 07:14:23;;;;;;;;;;;20.90;77.60;;;;;;5064150;28;19967;-67
2021/07/08 07:16:49;;;;;;;;;;;21.00;76.60;;;;;;5044984;28;20324;-68
2021/07/08 07:19:14;;;;;;;;;;;21.20;76.80;;;;;;5062796;28;19931;-67
2021/07/08 07:21:40;;;;;;;;;;;21.30;76.30;;;;;;5057051;28;19985;-67
2021/07/08 07:24:05;;;;;;;;;;;21.30;75.70;;;;;;5054374;28;19935;-67
2021/07/08 07:26:31;;;;;;;;;;;21.30;76.80;;;;;;5058821;28;19921;-67
2021/07/08 07:28:56;;;;;;;;;;;21.50;77.00;;;;;;5061062;28;19922;-67
2021/07/08 07:31:22;;;;;;;;;;;21.60;77.00;;;;;;5047833;28;19948;-67
2021/07/08 07:33:47;;;;;;;;;;;21.70;76.20;;;;;;5055032;28;19916;-67
2021/07/08 07:36:13;;;;;;;;;;;21.70;74.00;;;;;;5040884;28;20041;-67
2021/07/08 07:38:39;;;;;;;;;;;21.70;74.30;;;;;;5055407;28;20413;-67
2021/07/08 07:41:06;;;;;;;;;;;22.00;74.10;;;;;;5054159;28;19952;-67
2021/07/08 07:43:32;;;;;;;;;;;22.10;71.60;;;;;;5060030;28;19939;-67
2021/07/08 07:45:57;;;;;;;;;;;22.20;72.60;;;;;;5061880;28;19920;-67
2021/07/08 07:48:23;;;;;;;;;;;22.20;71.80;;;;;;5061757;28;19924;-67
2021/07/08 07:50:48;;;;;;;;;;;22.10;71.50;;;;;;5059188;28;19942;-68
2021/07/08 07:53:14;;;;;;;;;;;22.00;70.60;;;;;;5054552;28;19958;-67
2021/07/08 07:55:40;;;;;;;;;;;22.00;72.10;;;;;;5059273;28;19916;-67
2021/07/08 07:58:05;;;;;;;;;;;22.10;74.50;;;;;;5061596;28;19923;-67
2021/07/08 08:00:31;;;;;;;;;;;22.20;73.60;;;;;;5052022;28;20003;-69
2021/07/08 08:02:57;;;;;;;;;;;22.40;68.90;;;;;;5050845;28;19969;-69
2021/07/08 08:05:42;;;;;;;;;;;22.50;70.00;;;;;;5061790;28;19923;-68
2021/07/08 08:10:53;;;;;;;;;;;23.30;70.10;;;;;;5063354;28;19919;-68
2021/07/08 08:13:19;;;;;;;;;;;23.10;68.30;;;;;;5056913;28;19920;-68
2021/07/08 08:15:45;;;;;;;;;;;23.30;65.60;;;;;;5033262;28;19920;-67
2021/07/08 08:18:10;;;;;;;;;;;23.50;67.00;;;;;;5052799;28;20273;-68
2021/07/08 08:20:36;;;;;;;;;;;23.50;65.90;;;;;;5053267;28;19931;-69
2021/07/08 08:23:02;;;;;;;;;;;24.00;64.90;;;;;;5060852;28;20007;-71
2021/07/08 08:25:28;;;;;;;;;;;24.20;63.00;;;;;;5061971;28;19999;-68
2021/07/08 08:27:53;;;;;;;;;;;24.10;61.70;;;;;;5062290;28;20226;-68
2021/07/08 08:30:19;;;;;;;;;;;24.40;62.60;;;;;;5062113;28;19948;-69
2021/07/08 08:32:45;;;;;;;;;;;24.30;63.10;;;;;;5057431;28;19920;-68
2021/07/08 08:35:11;;;;;;;;;;;24.70;61.60;;;;;;5058587;28;19939;-68
2021/07/08 08:37:37;;;;;;;;;;;25.10;63.00;;;;;;5055426;28;20007;-68
2021/07/08 08:40:03;;;;;;;;;;;25.20;61.50;;;;;;5056138;28;20326;-68
2021/07/08 08:42:29;;;;;;;;;;;25.10;59.50;;;;;;5054783;28;20345;-68
2021/07/08 08:44:55;;;;;;;;;;;25.10;62.20;;;;;;5061212;28;19920;-68
2021/07/08 08:47:20;;;;;;;;;;;25.10;57.40;;;;;;5061457;28;20104;-70
2021/07/08 08:49:46;;;;;;;;;;;25.20;61.00;;;;;;5054966;28;19917;-69
2021/07/08 08:52:12;;;;;;;;;;;25.40;59.40;;;;;;5061595;28;20335;-66
2021/07/08 08:54:41;;;;;;;;;;;25.30;59.80;;;;;;5061210;28;20464;-70
2021/07/08 08:57:07;;;;;;;;;;;25.10;55.80;;;;;;5061523;28;19918;-68
2021/07/08 08:59:33;;;;;;;;;;;24.80;57.30;;;;;;5052365;28;19915;-70
2021/07/08 09:02:14;;;;;;;;;;;24.80;59.40;;;;;;5061630;28;19913;-69
2021/07/08 09:04:40;;;;;;;;;;;25.00;59.80;;;;;;5062961;28;19988;-68
2021/07/08 09:07:19;;;;;;;;;;;24.90;59.00;;;;;;5060844;28;19987;-68
2021/07/08 09:09:45;;;;;;;;;;;25.20;60.80;;;;;;5060742;28;20148;-68
2021/07/08 09:12:13;;;;;;;;;;;25.50;55.60;;;;;;5054401;28;20437;-68
2021/07/08 09:14:39;;;;;;;;;;;25.50;54.30;;;;;;5060350;28;19916;-68
2021/07/08 09:17:15;;;;;;;;;;;25.90;57.40;;;;;;5063023;28;19962;-68
2021/07/08 09:19:40;;;;;;;;;;;25.60;54.70;;;;;;5061266;28;19982;-69
2021/07/08 09:22:06;;;;;;;;;;;25.50;54.40;;;;;;5063647;28;19980;-71
2021/07/08 09:24:34;;;;;;;;;;;25.60;53.90;;;;;;5063126;28;19909;-69
2021/07/08 09:27:10;;;;;;;;;;;25.70;56.30;;;;;;5064242;28;19923;-69
2021/07/08 09:29:36;;;;;;;;;;;25.70;50.80;;;;;;5040670;28;20019;-67
2021/07/08 09:32:04;;;;;;;;;;;25.80;55.80;;;;;;5059691;28;19928;-69
2021/07/08 09:34:33;;;;;;;;;;;25.90;57.00;;;;;;5061598;28;20309;-69
2021/07/08 09:37:09;;;;;;;;;;;25.80;51.80;;;;;;5065381;28;19916;-70
2021/07/08 09:39:37;;;;;;;;;;;25.70;52.00;;;;;;5058338;28;20561;-68
2021/07/08 09:42:02;;;;;;;;;;;26.20;55.20;;;;;;5062333;28;20368;-67
2021/07/08 09:44:28;;;;;;;;;;;25.80;51.50;;;;;;5058439;28;19962;-69
2021/07/08 09:46:55;;;;;;;;;;;25.90;55.10;;;;;;5045456;28;20285;-68
2021/07/08 09:49:21;;;;;;;;;;;25.90;56.90;;;;;;5065381;28;20003;-69
2021/07/08 09:51:46;;;;;;;;;;;25.70;54.60;;;;;;5046000;28;20523;-71
2021/07/08 09:54:17;;;;;;;;;;;25.70;58.20;;;;;;5062345;28;19968;-70
2021/07/08 09:56:50;;;;;;;;;;;26.00;58.90;;;;;;5062575;28;19923;-69
2021/07/08 09:59:17;;;;;;;;;;;26.00;53.30;;;;;;5063409;28;19924;-70
2021/07/08 10:01:44;;;;;;;;;;;26.00;56.20;;;;;;5050652;28;20355;-68
2021/07/08 10:04:10;;;;;;;;;;;26.00;55.50;;;;;;5065931;28;20297;-71
2021/07/08 10:06:35;;;;;;;;;;;26.10;53.30;;;;;;5065107;28;19979;-69
2021/07/08 10:09:02;;;;;;;;;;;25.70;51.70;;;;;;5064489;28;19940;-70
2021/07/08 10:11:28;;;;;;;;;;;26.00;54.80;;;;;;5065393;28;19916;-69
2021/07/08 10:13:55;;;;;;;;;;;26.00;53.40;;;;;;5050459;28;19917;-69
2021/07/08 10:16:20;;;;;;;;;;;26.20;57.30;;;;;;5056528;28;20010;-68
2021/07/08 10:18:48;;;;;;;;;;;26.50;53.20;;;;;;5054133;28;20005;-70
2021/07/08 10:21:16;;;;;;;;;;;26.50;55.10;;;;;;5052072;28;19927;-68
2021/07/08 10:23:42;;;;;;;;;;;26.90;53.80;;;;;;5061861;28;19979;-69
2021/07/08 10:26:08;;;;;;;;;;;26.80;51.70;;;;;;5063433;28;19947;-69
2021/07/08 10:28:35;;;;;;;;;;;26.90;52.50;;;;;;5053640;28;20022;-68
2021/07/08 10:31:02;;;;;;;;;;;26.90;53.30;;;;;;5048504;28;20261;-69
2021/07/08 10:33:27;;;;;;;;;;;26.90;51.10;;;;;;5062036;28;19920;-69
2021/07/08 10:35:53;;;;;;;;;;;26.40;51.10;;;;;;5050385;28;19927;-68
2021/07/08 10:38:31;;;;;;;;;;;26.80;51.10;;;;;;5047084;28;19992;-69
2021/07/08 10:40:57;;;;;;;;;;;26.30;51.90;;;;;;5063150;28;19958;-70
2021/07/08 10:43:52;;;;;;;;;;;26.50;49.90;;;;;;5063815;28;19917;-70
2021/07/08 10:46:18;;;;;;;;;;;26.90;47.40;;;;;;5055297;28;19939;-69
2021/07/08 10:48:45;;;;;;;;;;;27.10;46.90;;;;;;5064759;28;19958;-69
2021/07/08 10:51:16;;;;;;;;;;;27.00;50.10;;;;;;5046128;28;20023;-71
2021/07/08 10:53:42;;;;;;;;;;;27.30;49.90;;;;;;5055333;28;20015;-70
2021/07/08 10:56:09;;;;;;;;;;;26.90;50.00;;;;;;5059854;28;19913;-68
2021/07/08 10:58:37;;;;;;;;;;;27.00;51.10;;;;;;5028080;28;19963;-69
2021/07/08 11:01:03;;;;;;;;;;;27.50;52.40;;;;;;5063724;28;19970;-68
2021/07/08 11:03:35;;;;;;;;;;;27.70;48.00;;;;;;5063599;28;19916;-69
2021/07/08 11:06:09;;;;;;;;;;;27.20;50.20;;;;;;5059732;28;19916;-70
2021/07/08 11:08:44;;;;;;;;;;;27.30;48.80;;;;;;5050538;28;20024;-70
2021/07/08 11:11:10;;;;;;;;;;;27.90;50.00;;;;;;5061319;28;19912;-69
2021/07/08 11:13:35;;;;;;;;;;;27.70;51.30;;;;;;5062598;28;19932;-68
2021/07/08 11:16:01;;;;;;;;;;;28.00;51.80;;;;;;5058105;28;19920;-67
2021/07/08 11:18:30;;;;;;;;;;;28.00;47.30;;;;;;5055642;28;19964;-67
2021/07/08 11:20:56;;;;;;;;;;;28.50;47.20;;;;;;5056505;28;20291;-68
2021/07/08 11:23:27;;;;;;;;;;;28.60;48.70;;;;;;5062363;28;19982;-68
2021/07/08 11:25:53;;;;;;;;;;;29.00;46.70;;;;;;5061070;28;19957;-67
2021/07/08 11:28:25;;;;;;;;;;;29.00;48.80;;;;;;5051917;28;19973;-68
2021/07/08 11:31:01;;;;;;;;;;;29.30;45.80;;;;;;5061530;28;19917;-68
2021/07/08 11:33:28;;;;;;;;;;;29.90;48.10;;;;;;5057761;28;20536;-68
2021/07/08 11:35:58;;;;;;;;;;;29.00;46.30;;;;;;5046667;28;20121;-67
2021/07/08 11:38:25;;;;;;;;;;;28.80;46.20;;;;;;5055011;28;20316;-67
2021/07/08 11:40:52;;;;;;;;;;;28.80;49.80;;;;;;5052597;28;19956;-69
2021/07/08 11:43:21;;;;;;;;;;;28.20;45.40;;;;;;5061510;28;20004;-69
2021/07/08 11:45:47;;;;;;;;;;;28.60;48.50;;;;;;5052089;28;19917;-67
2021/07/08 11:48:21;;;;;;;;;;;28.90;46.00;;;;;;5062086;28;20480;-67
2021/07/08 11:50:49;;;;;;;;;;;28.40;46.00;;;;;;5064578;28;19924;-68
2021/07/08 11:53:17;;;;;;;;;;;27.90;46.30;;;;;;5062306;28;20033;-68
2021/07/08 11:55:43;;;;;;;;;;;27.80;49.30;;;;;;5062394;28;19966;-68
2021/07/08 11:58:10;;;;;;;;;;;28.00;49.20;;;;;;5058482;28;19916;-69
2021/07/08 12:00:42;;;;;;;;;;;28.00;50.10;;;;;;5057231;28;20379;-68
2021/07/08 12:03:22;;;;;;;;;;;28.20;53.50;;;;;;5044088;28;20400;-68
2021/07/08 12:05:51;;;;;;;;;;;28.40;50.60;;;;;;5050875;28;20325;-66
2021/07/08 12:08:24;;;;;;;;;;;29.20;48.00;;;;;;5055785;28;19932;-69
2021/07/08 12:10:54;;;;;;;;;;;30.10;45.80;;;;;;5050914;28;19928;-68
2021/07/08 12:13:20;;;;;;;;;;;30.40;45.20;;;;;;5050633;28;20412;-68
2021/07/08 12:15:45;;;;;;;;;;;29.60;45.70;;;;;;5061538;28;19921;-68
2021/07/08 12:18:10;;;;;;;;;;;29.10;49.30;;;;;;5052489;28;19921;-68
2021/07/08 12:20:49;;;;;;;;;;;28.50;50.00;;;;;;5056856;28;20288;-68
2021/07/08 12:23:15;;;;;;;;;;;28.50;52.00;;;;;;5052002;28;20425;-68
2021/07/08 12:25:40;;;;;;;;;;;28.00;52.60;;;;;;5053675;28;20683;-68
2021/07/08 12:28:06;;;;;;;;;;;28.20;49.50;;;;;;5034131;28;19912;-67
2021/07/08 12:30:32;;;;;;;;;;;28.70;49.90;;;;;;5056954;28;20372;-71
2021/07/08 12:33:07;;;;;;;;;;;28.30;50.10;;;;;;5048355;28;19920;-69
2021/07/08 12:35:40;;;;;;;;;;;28.00;49.30;;;;;;5055553;28;19912;-68
2021/07/08 12:38:06;;;;;;;;;;;28.00;51.50;;;;;;5055711;28;20008;-68
2021/07/08 12:40:31;;;;;;;;;;;28.20;52.30;;;;;;5052410;28;19995;-67
2021/07/08 12:43:03;;;;;;;;;;;28.00;49.70;;;;;;5051321;28;20004;-69
2021/07/08 12:45:29;;;;;;;;;;;28.20;51.50;;;;;;5055220;28;19917;-68
2021/07/08 12:47:55;;;;;;;;;;;28.40;48.60;;;;;;5053823;28;19913;-69
2021/07/08 12:50:25;;;;;;;;;;;28.70;49.40;;;;;;5054091;28;19928;-69
2021/07/08 12:52:50;;;;;;;;;;;28.50;46.00;;;;;;5050280;28;19961;-67
2021/07/08 12:55:34;;;;;;;;;;;28.10;44.90;;;;;;5054107;28;19980;-69
2021/07/08 12:58:03;;;;;;;;;;;28.90;47.00;;;;;;5052545;28;20229;-68
2021/07/08 13:00:33;;;;;;;;;;;29.40;45.50;;;;;;5055341;28;20345;-67
2021/07/08 13:02:58;;;;;;;;;;;29.00;45.60;;;;;;5047127;28;19916;-68
2021/07/08 13:05:33;;;;;;;;;;;28.60;46.20;;;;;;5057528;28;20329;-68
2021/07/08 13:07:58;;;;;;;;;;;29.60;46.00;;;;;;5048710;28;19970;-68
2021/07/08 13:10:32;;;;;;;;;;;29.80;45.30;;;;;;5056064;28;19917;-68
2021/07/08 13:12:59;;;;;;;;;;;29.30;46.70;;;;;;5053335;28;20391;-67
2021/07/08 13:15:25;;;;;;;;;;;29.20;47.60;;;;;;5057758;28;20011;-68
2021/07/08 13:18:09;;;;;;;;;;;28.50;47.40;;;;;;5057161;28;19956;-67
2021/07/08 13:20:36;;;;;;;;;;;27.90;47.30;;;;;;5050838;28;20199;-70
2021/07/08 13:23:11;;;;;;;;;;;28.50;48.00;;;;;;5055386;28;20091;-67
2021/07/08 13:25:38;;;;;;;;;;;28.40;46.50;;;;;;5056932;28;20023;-68
2021/07/08 13:28:15;;;;;;;;;;;28.50;47.50;;;;;;5057422;28;19913;-67
2021/07/08 13:30:41;;;;;;;;;;;29.80;45.00;;;;;;5055158;28;20563;-67
2021/07/08 13:33:08;;;;;;;;;;;30.50;41.70;;;;;;5053710;28;19983;-68
2021/07/08 13:35:53;;;;;;;;;;;31.50;42.30;;;;;;5055702;28;19916;-68
2021/07/08 13:38:26;;;;;;;;;;;31.60;40.40;;;;;;5052201;28;19912;-68
2021/07/08 13:41:07;;;;;;;;;;;32.20;38.80;;;;;;5057904;28;20369;-68
2021/07/08 13:43:37;;;;;;;;;;;31.50;41.80;;;;;;5054270;28;20312;-68
2021/07/08 13:46:32;;;;;;;;;;;30.50;44.20;;;;;;5056497;28;20011;-68
2021/07/08 13:49:08;;;;;;;;;;;29.90;42.40;;;;;;5041851;28;19926;-67
2021/07/08 13:51:34;;;;;;;;;;;29.70;44.70;;;;;;5061565;28;20072;-68
2021/07/08 13:54:00;;;;;;;;;;;30.40;43.60;;;;;;5055008;28;20309;-68
2021/07/08 13:56:26;;;;;;;;;;;31.90;42.40;;;;;;5054948;28;19985;-68
2021/07/08 13:58:51;;;;;;;;;;;33.00;38.90;;;;;;5056683;28;20120;-68
2021/07/08 14:01:18;;;;;;;;;;;33.60;37.80;;;;;;5056500;28;20012;-67
2021/07/08 14:03:44;;;;;;;;;;;33.20;36.50;;;;;;5058470;28;19965;-68
2021/07/08 14:06:10;;;;;;;;;;;32.90;37.50;;;;;;5062662;28;19963;-68
2021/07/08 14:08:42;;;;;;;;;;;32.20;38.60;;;;;;5058534;28;19913;-66
2021/07/08 14:11:08;;;;;;;;;;;31.30;39.90;;;;;;5056101;28;19967;-67
2021/07/08 14:13:34;;;;;;;;;;;29.90;42.10;;;;;;5057122;28;19920;-67
2021/07/08 14:16:00;;;;;;;;;;;29.20;43.00;;;;;;5060168;28;19980;-67
2021/07/08 14:18:25;;;;;;;;;;;28.40;45.80;;;;;;5057728;28;19912;-68